Time;durP1;ratioP1;P1;durP2;ratioP2;P2;SDS_P1;SDS_P2;PMS_P1;PMS_P2;Temp;Humidity;BMP_temperature;BMP_pressure;BME280_temperature;BME280_humidity;BME280_pressure;Samples;Min_cycle;Max_cycle;Signal;HPM_P1;HPM_P2
2021/08/29 08:56:16;;;;;;;8.05;2.90;;;;;;;;;;2028228;27;2205399;-22
2021/08/29 08:57:48;;;;;;;7.90;3.03;;;;;;;;;;2079107;28;100095;-23
2021/08/29 08:59:15;;;;;;;6.50;2.83;;;;;;;;;;2086049;27;100871;-21
2021/08/29 09:00:18;;;;;;;6.30;2.88;;;;;;;;;;2105882;27;100021;-22
2021/08/29 09:01:40;;;;;;;6.70;2.80;;;;;;;;;;2071132;28;100167;-20
2021/08/29 09:03:19;;;;;;;6.72;2.30;;;;;;;;;;2070982;28;100482;-23
2021/08/29 09:04:42;;;;;;;10.77;2.70;;;;;;;;;;2071691;28;100149;-20
2021/08/29 09:05:47;;;;;;;8.43;2.95;;;;;;;;;;2077006;27;100005;-22
2021/08/29 09:07:05;;;;;;;7.35;2.30;;;;;;;;;;2088123;27;100201;-23
2021/08/29 09:08:08;;;;;;;6.05;2.55;;;;;;;;;;2080235;27;99984;-21
2021/08/29 09:09:10;;;;;;;8.30;2.70;;;;;;;;;;2079665;27;100164;-22
2021/08/29 09:10:11;;;;;;;10.00;3.28;;;;;;;;;;2088451;27;100151;-22
2021/08/29 09:11:12;;;;;;;11.68;2.92;;;;;;;;;;2088199;27;100002;-20
2021/08/29 09:12:14;;;;;;;10.10;2.83;;;;;;;;;;2088621;27;99956;-20
2021/08/29 09:13:16;;;;;;;6.43;2.40;;;;;;;;;;2079273;28;99929;-22
2021/08/29 09:14:18;;;;;;;7.18;2.50;;;;;;;;;;2064722;27;100097;-23
2021/08/29 09:15:21;;;;;;;11.15;2.88;;;;;;;;;;2070508;28;101368;-21
2021/08/29 09:16:27;;;;;;;8.50;2.85;;;;;;;;;;2079435;28;100002;-24
2021/08/29 09:17:43;;;;;;;10.55;2.88;;;;;;;;;;2070111;28;100288;-20
2021/08/29 09:18:53;;;;;;;11.00;2.72;;;;;;;;;;2065046;28;100417;-21
2021/08/29 09:20:17;;;;;;;10.95;2.70;;;;;;;;;;2063795;28;100173;-21
2021/08/29 09:21:26;;;;;;;7.57;2.60;;;;;;;;;;2062801;28;100362;-20
2021/08/29 09:22:28;;;;;;;12.90;2.38;;;;;;;;;;2064255;28;100294;-21
2021/08/29 09:23:49;;;;;;;7.40;2.40;;;;;;;;;;2073882;28;100272;-22
2021/08/29 09:25:16;;;;;;;7.30;2.80;;;;;;;;;;2079203;28;100353;-22
2021/08/29 09:26:32;;;;;;;11.57;3.22;;;;;;;;;;2071690;28;99954;-22
2021/08/29 09:27:58;;;;;;;6.50;2.65;;;;;;;;;;2064934;28;100962;-21
2021/08/29 09:29:22;;;;;;;10.40;2.47;;;;;;;;;;2066222;28;100273;-20
2021/08/29 09:30:24;;;;;;;7.47;2.42;;;;;;;;;;2070935;28;100441;-22
2021/08/29 09:31:42;;;;;;;11.32;2.60;;;;;;;;;;2066241;28;100051;-21
2021/08/29 09:32:53;;;;;;;8.68;2.50;;;;;;;;;;2079079;28;99979;-21
2021/08/29 09:34:01;;;;;;;7.35;2.45;;;;;;;;;;2070945;28;100391;-23
2021/08/29 09:35:04;;;;;;;8.27;2.58;;;;;;;;;;2063691;28;100322;-21
2021/08/29 09:36:39;;;;;;;10.15;2.30;;;;;;;;;;2063489;28;100219;-20
2021/08/29 09:38:05;;;;;;;5.63;2.50;;;;;;;;;;2061387;28;100509;-20
2021/08/29 09:39:45;;;;;;;8.52;2.40;;;;;;;;;;2067113;28;100299;-22
2021/08/29 09:41:23;;;;;;;10.20;2.70;;;;;;;;;;2062743;28;100137;-20
2021/08/29 09:42:47;;;;;;;8.02;2.42;;;;;;;;;;2066938;28;100977;-21
2021/08/29 09:43:53;;;;;;;6.00;2.47;;;;;;;;;;2045762;28;100163;-22
2021/08/29 09:44:57;;;;;;;7.45;2.58;;;;;;;;;;2047918;28;100083;-22
2021/08/29 09:46:21;;;;;;;7.53;2.10;;;;;;;;;;2038170;28;100142;-22
2021/08/29 09:47:43;;;;;;;9.18;2.65;;;;;;;;;;2065792;28;100004;-20
2021/08/29 09:49:03;;;;;;;8.25;2.50;;;;;;;;;;2070921;28;100072;-19
2021/08/29 09:50:26;;;;;;;9.40;2.72;;;;;;;;;;2070897;28;100169;-21
2021/08/29 09:51:49;;;;;;;9.80;2.83;;;;;;;;;;2070748;28;100346;-22
2021/08/29 09:53:13;;;;;;;6.57;2.70;;;;;;;;;;2073033;27;100006;-22
2021/08/29 09:54:35;;;;;;;5.28;2.65;;;;;;;;;;2097492;27;100021;-23
2021/08/29 09:56:18;;;;;;;10.57;2.30;;;;;;;;;;2079060;28;100041;-22
2021/08/29 09:57:37;;;;;;;5.22;2.60;;;;;;;;;;2087362;27;99888;-20
2021/08/29 09:58:48;;;;;;;5.45;1.88;;;;;;;;;;2082795;28;100132;-19
2021/08/29 10:00:11;;;;;;;7.55;2.10;;;;;;;;;;2073997;28;100076;-24
2021/08/29 10:01:18;;;;;;;6.32;2.10;;;;;;;;;;2070623;28;100087;-23
2021/08/29 10:03:00;;;;;;;5.60;2.45;;;;;;;;;;2078438;28;99978;-20
2021/08/29 10:04:18;;;;;;;9.30;2.72;;;;;;;;;;2076321;28;99926;-20
2021/08/29 10:05:20;;;;;;;9.40;2.30;;;;;;;;;;2067482;28;100287;-22
2021/08/29 10:06:29;;;;;;;11.02;2.88;;;;;;;;;;2068266;27;99975;-22
2021/08/29 10:07:30;;;;;;;12.90;2.60;;;;;;;;;;2090590;27;100031;-23
2021/08/29 10:08:40;;;;;;;;;;;;;;;;;;2090773;27;100178;-23
2021/08/29 10:09:50;;;;;;;9.65;2.45;;;;;;;;;;2082150;28;100119;-22
2021/08/29 10:11:01;;;;;;;;;;;;;;;;;;2077439;27;100393;-20
2021/08/29 10:12:03;;;;;;;10.45;3.08;;;;;;;;;;2082768;27;100079;-22
2021/08/29 10:13:06;;;;;;;8.63;2.50;;;;;;;;;;2082434;27;99915;-22
2021/08/29 10:14:10;;;;;;;12.27;2.40;;;;;;;;;;2082123;28;99974;-21
2021/08/29 10:15:36;;;;;;;10.57;2.20;;;;;;;;;;2091933;27;100033;-19
2021/08/29 10:16:58;;;;;;;10.80;2.63;;;;;;;;;;2099890;27;99978;-24
2021/08/29 10:18:40;;;;;;;8.32;2.70;;;;;;;;;;2073140;28;100297;-22
2021/08/29 10:20:00;;;;;;;9.93;2.40;;;;;;;;;;2073545;28;100063;-23
2021/08/29 10:21:24;;;;;;;4.95;2.13;;;;;;;;;;2073681;28;100045;-20
2021/08/29 10:22:26;;;;;;;8.05;2.33;;;;;;;;;;2065116;28;99966;-21
2021/08/29 10:23:28;;;;;;;11.57;2.88;;;;;;;;;;2065671;28;100221;-20
2021/08/29 10:24:32;;;;;;;8.00;2.35;;;;;;;;;;2085678;27;100028;-21
2021/08/29 10:25:37;;;;;;;13.35;2.50;;;;;;;;;;2090979;27;100277;-21
2021/08/29 10:26:50;;;;;;;6.35;2.25;;;;;;;;;;2084086;27;99924;-20
2021/08/29 10:28:15;;;;;;;5.30;2.10;;;;;;;;;;2092019;27;100082;-19
2021/08/29 10:29:34;;;;;;;10.82;2.67;;;;;;;;;;2090512;27;100277;-19
2021/08/29 10:30:44;;;;;;;10.23;2.30;;;;;;;;;;2092468;27;99953;-19
2021/08/29 10:32:33;;;;;;;7.30;2.00;;;;;;;;;;2090029;27;100166;-20
2021/08/29 10:33:57;;;;;;;11.40;2.70;;;;;;;;;;2078769;27;100413;-22
2021/08/29 10:35:00;;;;;;;5.80;2.30;;;;;;;;;;2073211;28;100152;-20
2021/08/29 10:36:01;;;;;;;7.88;2.40;;;;;;;;;;2082513;27;100189;-20
2021/08/29 10:37:40;;;;;;;8.50;2.22;;;;;;;;;;2065078;28;100294;-21
2021/08/29 10:39:00;;;;;;;10.20;2.40;;;;;;;;;;2099393;27;100018;-22
2021/08/29 10:40:19;;;;;;;9.27;2.60;;;;;;;;;;2099858;27;101452;-22
2021/08/29 10:41:41;;;;;;;8.82;2.20;;;;;;;;;;2079550;28;100370;-20
2021/08/29 10:42:48;;;;;;;6.35;2.40;;;;;;;;;;2077153;28;100234;-21
2021/08/29 10:43:54;;;;;;;7.28;2.35;;;;;;;;;;2087738;27;100111;-20
2021/08/29 10:45:14;;;;;;;8.88;2.30;;;;;;;;;;2089865;27;100557;-22
2021/08/29 10:46:45;;;;;;;12.23;2.80;;;;;;;;;;2063451;27;102224;-21
2021/08/29 10:48:16;;;;;;;9.73;2.38;;;;;;;;;;2072677;27;100127;-20
2021/08/29 10:49:28;;;;;;;10.50;2.63;;;;;;;;;;2087593;27;100121;-23
2021/08/29 10:50:30;;;;;;;11.45;2.78;;;;;;;;;;2090321;27;100141;-22
2021/08/29 10:51:31;;;;;;;6.40;2.35;;;;;;;;;;2099034;27;100044;-21
2021/08/29 10:52:34;;;;;;;13.15;2.40;;;;;;;;;;2090505;27;100171;-21
2021/08/29 10:53:40;;;;;;;8.48;2.80;;;;;;;;;;2073317;28;99907;-19
2021/08/29 10:54:54;;;;;;;16.92;2.75;;;;;;;;;;2074910;27;100080;-20
2021/08/29 10:56:14;;;;;;;10.55;2.63;;;;;;;;;;2072825;28;100050;-22
2021/08/29 10:57:30;;;;;;;10.73;2.40;;;;;;;;;;2085110;27;100116;-21
2021/08/29 10:58:34;;;;;;;10.57;2.20;;;;;;;;;;2090148;27;99977;-21
2021/08/29 10:59:35;;;;;;;;;;;;;;;;;;2082322;28;99980;-21
2021/08/29 11:00:43;;;;;;;7.40;2.83;;;;;;;;;;2088475;27;100105;-23
2021/08/29 11:02:12;;;;;;;12.02;2.67;;;;;;;;;;2092517;27;100171;-22
2021/08/29 11:03:35;;;;;;;9.68;2.28;;;;;;;;;;2097249;27;100632;-20
2021/08/29 11:05:12;;;;;;;8.95;2.10;;;;;;;;;;2085304;27;101812;-20
2021/08/29 11:06:45;;;;;;;10.10;2.38;;;;;;;;;;2089453;27;100202;-22
2021/08/29 11:07:49;;;;;;;9.18;2.65;;;;;;;;;;2077281;27;100065;-22
2021/08/29 11:08:50;;;;;;;7.03;2.40;;;;;;;;;;2078619;27;100098;-20
2021/08/29 11:09:52;;;;;;;11.27;2.72;;;;;;;;;;2072810;28;100010;-20
2021/08/29 11:10:54;;;;;;;7.50;2.33;;;;;;;;;;2065291;28;100254;-21
2021/08/29 11:11:55;;;;;;;11.80;2.45;;;;;;;;;;2081764;27;100088;-21
2021/08/29 11:12:56;;;;;;;10.25;2.08;;;;;;;;;;2088367;27;100085;-20
2021/08/29 11:13:57;;;;;;;9.77;2.50;;;;;;;;;;2081242;27;100096;-22
2021/08/29 11:15:05;;;;;;;9.05;2.30;;;;;;;;;;2081413;28;100940;-20
2021/08/29 11:16:09;;;;;;;7.13;2.13;;;;;;;;;;2082361;27;99957;-20
2021/08/29 11:17:35;;;;;;;7.47;2.20;;;;;;;;;;2090754;27;100387;-20
2021/08/29 11:19:01;;;;;;;8.63;2.22;;;;;;;;;;2089840;27;100470;-20
2021/08/29 11:20:14;;;;;;;7.88;2.15;;;;;;;;;;2081035;27;100826;-23
2021/08/29 11:21:22;;;;;;;13.63;2.35;;;;;;;;;;2082582;27;100011;-21
2021/08/29 11:22:49;;;;;;;7.72;2.47;;;;;;;;;;2063617;28;100126;-20
2021/08/29 11:24:13;;;;;;;4.55;2.08;;;;;;;;;;2090452;27;100161;-21
2021/08/29 11:25:17;;;;;;;10.38;2.25;;;;;;;;;;2081302;28;100698;-19
2021/08/29 11:26:29;;;;;;;8.82;2.38;;;;;;;;;;2083941;27;100012;-19
2021/08/29 11:27:52;;;;;;;6.47;1.90;;;;;;;;;;2089118;27;100076;-22
2021/08/29 11:29:40;;;;;;;5.25;2.05;;;;;;;;;;2095590;27;100136;-20
2021/08/29 11:30:42;;;;;;;9.88;2.35;;;;;;;;;;2081460;28;100018;-19
2021/08/29 11:31:49;;;;;;;10.32;2.08;;;;;;;;;;2066751;28;100110;-21
2021/08/29 11:32:58;;;;;;;6.20;2.13;;;;;;;;;;2072772;28;100534;-22
2021/08/29 11:34:08;;;;;;;8.80;2.42;;;;;;;;;;2075878;27;100112;-22
2021/08/29 11:35:15;;;;;;;10.57;2.40;;;;;;;;;;2082970;27;100175;-21
2021/08/29 11:36:29;;;;;;;9.13;2.05;;;;;;;;;;2089081;27;99979;-20
2021/08/29 11:37:33;;;;;;;8.40;2.10;;;;;;;;;;2090876;27;100146;-20
2021/08/29 11:38:51;;;;;;;10.73;2.55;;;;;;;;;;2081373;28;100142;-23
2021/08/29 11:40:04;;;;;;;6.78;2.30;;;;;;;;;;2073311;28;99918;-22
2021/08/29 11:41:13;;;;;;;11.13;2.30;;;;;;;;;;2074680;28;100042;-19
2021/08/29 11:42:18;;;;;;;10.90;2.25;;;;;;;;;;2074281;28;100250;-22
2021/08/29 11:43:34;;;;;;;7.53;2.42;;;;;;;;;;2082374;27;100062;-19
2021/08/29 11:44:35;;;;;;;9.45;2.35;;;;;;;;;;2073110;28;99942;-23
2021/08/29 11:45:36;;;;;;;10.75;2.13;;;;;;;;;;2065235;28;99944;-23
2021/08/29 11:46:39;;;;;;;8.88;2.40;;;;;;;;;;2081318;28;100112;-19
2021/08/29 11:47:44;;;;;;;8.73;2.55;;;;;;;;;;2073264;28;100003;-22
2021/08/29 11:49:13;;;;;;;8.70;2.50;;;;;;;;;;2081368;27;100039;-22
2021/08/29 11:50:43;;;;;;;9.95;2.33;;;;;;;;;;2080449;27;100039;-19
2021/08/29 11:52:04;;;;;;;10.50;2.33;;;;;;;;;;2089004;27;99941;-22
2021/08/29 11:53:11;;;;;;;8.15;2.28;;;;;;;;;;2077923;28;100054;-21
2021/08/29 11:54:12;;;;;;;11.57;2.40;;;;;;;;;;2069477;27;100307;-20
2021/08/29 11:55:17;;;;;;;11.57;2.55;;;;;;;;;;2078683;27;99931;-21
2021/08/29 11:56:30;;;;;;;8.48;2.45;;;;;;;;;;2080999;28;100263;-22
2021/08/29 11:57:31;;;;;;;7.55;2.50;;;;;;;;;;2064834;28;100006;-22
2021/08/29 11:58:32;;;;;;;7.18;2.50;;;;;;;;;;2073415;27;99964;-20
2021/08/29 11:59:34;;;;;;;11.10;2.30;;;;;;;;;;2089843;27;99947;-22
2021/08/29 12:01:01;;;;;;;10.63;2.80;;;;;;;;;;2082097;28;99899;-19
2021/08/29 12:02:06;;;;;;;9.32;2.55;;;;;;;;;;2074344;27;100116;-20
2021/08/29 12:03:16;;;;;;;9.98;2.13;;;;;;;;;;2085053;27;99852;-22
2021/08/29 12:04:20;;;;;;;10.93;2.35;;;;;;;;;;2066545;28;99978;-23
2021/08/29 12:06:01;;;;;;;7.13;2.20;;;;;;;;;;2051547;28;100139;-22
2021/08/29 12:07:21;;;;;;;5.57;2.10;;;;;;;;;;2099048;27;100023;-22
2021/08/29 12:08:55;;;;;;;6.90;2.20;;;;;;;;;;2093653;27;100103;-23
2021/08/29 12:10:17;;;;;;;5.75;2.45;;;;;;;;;;2047657;28;100276;-20
2021/08/29 12:11:39;;;;;;;12.77;2.42;;;;;;;;;;2090372;27;100227;-21
2021/08/29 12:13:10;;;;;;;8.20;2.10;;;;;;;;;;2055451;28;100204;-23
2021/08/29 12:14:44;;;;;;;7.65;2.45;;;;;;;;;;2056289;27;100376;-21
2021/08/29 12:16:04;;;;;;;7.13;2.70;;;;;;;;;;2098325;27;99954;-20
2021/08/29 12:17:25;;;;;;;8.98;2.40;;;;;;;;;;2089493;27;100026;-21
2021/08/29 12:18:27;;;;;;;8.02;2.40;;;;;;;;;;2080809;28;100368;-20
2021/08/29 12:19:33;;;;;;;9.15;2.05;;;;;;;;;;2064992;28;100317;-22
2021/08/29 12:20:55;;;;;;;7.90;1.88;;;;;;;;;;2053328;28;100140;-25
2021/08/29 12:22:15;;;;;;;8.35;2.72;;;;;;;;;;2088296;27;99999;-23
2021/08/29 12:23:42;;;;;;;15.88;2.75;;;;;;;;;;2089368;27;100407;-23
2021/08/29 12:24:43;;;;;;;9.73;2.10;;;;;;;;;;2081080;28;100338;-22
2021/08/29 12:25:44;;;;;;;12.25;2.30;;;;;;;;;;2072504;28;99898;-22
2021/08/29 12:27:00;;;;;;;5.30;2.03;;;;;;;;;;2081262;27;99988;-21
2021/08/29 12:28:14;;;;;;;10.93;1.95;;;;;;;;;;2081166;27;100065;-23
2021/08/29 12:29:17;;;;;;;7.63;2.05;;;;;;;;;;2082732;27;100079;-21
2021/08/29 12:30:18;;;;;;;5.80;1.90;;;;;;;;;;2081038;27;100071;-21
2021/08/29 12:31:22;;;;;;;6.50;1.83;;;;;;;;;;2081426;27;100134;-22
2021/08/29 12:32:30;;;;;;;9.02;2.35;;;;;;;;;;2056352;28;99953;-25
2021/08/29 12:33:32;;;;;;;7.43;2.60;;;;;;;;;;2058743;28;100037;-19
2021/08/29 12:34:33;;;;;;;8.43;2.40;;;;;;;;;;2064911;28;99935;-21
2021/08/29 12:35:34;;;;;;;7.22;2.00;;;;;;;;;;2064385;28;100130;-23
2021/08/29 12:36:36;;;;;;;8.13;2.05;;;;;;;;;;2080958;28;100572;-23
2021/08/29 12:37:46;;;;;;;10.13;2.30;;;;;;;;;;2072355;27;100046;-20
2021/08/29 12:38:53;;;;;;;8.65;2.20;;;;;;;;;;2082355;27;100013;-23
2021/08/29 12:40:02;;;;;;;8.00;2.30;;;;;;;;;;2087447;27;99933;-21
2021/08/29 12:41:04;;;;;;;5.82;2.40;;;;;;;;;;2080595;28;100067;-21
2021/08/29 12:42:19;;;;;;;9.35;2.50;;;;;;;;;;2073227;27;99990;-22
2021/08/29 12:43:28;;;;;;;11.85;2.30;;;;;;;;;;2083076;27;100005;-20
2021/08/29 12:44:35;;;;;;;7.78;2.20;;;;;;;;;;2082429;27;100031;-20
2021/08/29 12:45:37;;;;;;;7.00;2.00;;;;;;;;;;2081238;28;99927;-23
2021/08/29 12:46:39;;;;;;;8.07;1.88;;;;;;;;;;2089501;27;99975;-20
2021/08/29 12:47:43;;;;;;;6.65;1.80;;;;;;;;;;2089217;27;101464;-20
2021/08/29 12:48:43;;;;;;;6.72;2.28;;;;;;;;;;2089994;27;99937;-23
2021/08/29 12:49:45;;;;;;;;;;;;;;;;;;2098639;27;99838;-20
2021/08/29 12:50:47;;;;;;;10.00;2.42;;;;;;;;;;2098668;27;99998;-23
2021/08/29 12:51:48;;;;;;;5.00;1.80;;;;;;;;;;2098620;27;99869;-20
2021/08/29 12:52:54;;;;;;;10.38;2.28;;;;;;;;;;2098540;27;100023;-22
2021/08/29 12:53:59;;;;;;;7.57;2.08;;;;;;;;;;2098065;27;100573;-21
2021/08/29 12:55:00;;;;;;;6.38;1.92;;;;;;;;;;2098507;27;100342;-20
2021/08/29 12:56:02;;;;;;;4.43;2.00;;;;;;;;;;2080858;28;100111;-20
2021/08/29 12:57:04;;;;;;;5.25;1.58;;;;;;;;;;2080762;27;99993;-21
2021/08/29 12:58:11;;;;;;;4.45;1.67;;;;;;;;;;2087024;27;100487;-22
2021/08/29 12:59:12;;;;;;;8.00;1.75;;;;;;;;;;2088099;27;100088;-22
2021/08/29 13:00:13;;;;;;;;;;;;;;;;;;2090221;27;99935;-22
2021/08/29 13:01:17;;;;;;;6.53;1.98;;;;;;;;;;2089205;27;100167;-21
2021/08/29 13:02:19;;;;;;;6.80;1.63;;;;;;;;;;2080997;27;100228;-20
2021/08/29 13:03:23;;;;;;;7.50;2.22;;;;;;;;;;2089414;27;100143;-22
2021/08/29 13:04:26;;;;;;;4.60;1.88;;;;;;;;;;2089420;27;101465;-20
2021/08/29 13:05:35;;;;;;;3.65;2.08;;;;;;;;;;2089791;27;99973;-21
2021/08/29 13:06:36;;;;;;;7.35;2.20;;;;;;;;;;2080109;28;100040;-20
2021/08/29 13:07:51;;;;;;;5.30;1.67;;;;;;;;;;2073135;27;99976;-20
2021/08/29 13:08:52;;;;;;;5.60;1.77;;;;;;;;;;2082829;27;101112;-24
2021/08/29 13:09:57;;;;;;;4.60;1.65;;;;;;;;;;2089254;27;99893;-20
2021/08/29 13:11:06;;;;;;;5.57;1.90;;;;;;;;;;2090004;27;100001;-21
2021/08/29 13:12:29;;;;;;;7.22;1.85;;;;;;;;;;2089404;27;99906;-18
2021/08/29 13:13:47;;;;;;;6.22;1.67;;;;;;;;;;2089179;27;100061;-23
2021/08/29 13:14:48;;;;;;;8.82;2.10;;;;;;;;;;2083210;27;100095;-21
2021/08/29 13:15:49;;;;;;;6.00;2.67;;;;;;;;;;2089069;27;100076;-20
2021/08/29 13:16:49;;;;;;;;;;;;;;;;;;2089594;27;100055;-22
2021/08/29 13:17:50;;;;;;;6.45;2.13;;;;;;;;;;2089144;27;99994;-20
2021/08/29 13:19:02;;;;;;;10.43;2.67;;;;;;;;;;2090011;27;100013;-23
2021/08/29 13:20:07;;;;;;;6.68;1.77;;;;;;;;;;2089909;27;100045;-20
2021/08/29 13:21:22;;;;;;;7.65;1.90;;;;;;;;;;2089050;27;100258;-19
2021/08/29 13:22:45;;;;;;;8.60;1.90;;;;;;;;;;2089096;27;100054;-20
2021/08/29 13:23:46;;;;;;;5.47;1.85;;;;;;;;;;2089413;27;101140;-22
2021/08/29 13:24:47;;;;;;;;;;;;;;;;;;2087567;27;100020;-20
2021/08/29 13:25:53;;;;;;;4.53;1.52;;;;;;;;;;2087349;27;100461;-22
2021/08/29 13:26:56;;;;;;;4.63;2.05;;;;;;;;;;2088844;27;100009;-23
2021/08/29 13:28:01;;;;;;;4.90;2.00;;;;;;;;;;2088654;27;100270;-19
2021/08/29 13:29:03;;;;;;;6.78;1.58;;;;;;;;;;2089058;27;100184;-22
2021/08/29 13:30:05;;;;;;;2.80;1.58;;;;;;;;;;2088933;27;100077;-24
2021/08/29 13:31:08;;;;;;;8.35;1.83;;;;;;;;;;2080717;27;100081;-21
2021/08/29 13:32:10;;;;;;;4.93;1.85;;;;;;;;;;2079122;27;100016;-19
2021/08/29 13:33:20;;;;;;;7.85;2.33;;;;;;;;;;2090802;27;100127;-21
2021/08/29 13:34:30;;;;;;;7.32;2.08;;;;;;;;;;2090765;27;100086;-21
2021/08/29 13:35:33;;;;;;;4.82;2.00;;;;;;;;;;2083139;27;100111;-23
2021/08/29 13:36:44;;;;;;;5.05;1.98;;;;;;;;;;2065954;28;100078;-19
2021/08/29 13:37:51;;;;;;;2.45;1.77;;;;;;;;;;2074697;28;99917;-22
2021/08/29 13:38:52;;;;;;;5.55;2.00;;;;;;;;;;2075315;27;100156;-20
2021/08/29 13:39:54;;;;;;;5.13;1.92;;;;;;;;;;2090153;27;100053;-21
2021/08/29 13:40:55;;;;;;;6.07;2.13;;;;;;;;;;2090431;27;100001;-21
2021/08/29 13:42:15;;;;;;;7.60;2.10;;;;;;;;;;2065492;28;100224;-20
2021/08/29 13:43:21;;;;;;;10.63;1.80;;;;;;;;;;2079591;27;100422;-23
2021/08/29 13:44:27;;;;;;;6.03;1.75;;;;;;;;;;2081770;28;100065;-20
2021/08/29 13:45:31;;;;;;;5.07;1.90;;;;;;;;;;2075317;27;100530;-23
2021/08/29 13:46:33;;;;;;;5.15;1.77;;;;;;;;;;2090360;27;100170;-20
2021/08/29 13:47:37;;;;;;;9.18;1.95;;;;;;;;;;2091019;27;99958;-21
2021/08/29 13:48:38;;;;;;;6.93;1.70;;;;;;;;;;2090480;27;100034;-23
2021/08/29 13:49:39;;;;;;;4.45;1.60;;;;;;;;;;2073756;28;100144;-19
2021/08/29 13:50:40;;;;;;;7.82;2.05;;;;;;;;;;2073945;27;100065;-21
2021/08/29 13:51:42;;;;;;;5.18;1.75;;;;;;;;;;2082049;27;100234;-23
2021/08/29 13:52:43;;;;;;;6.30;1.80;;;;;;;;;;2073417;28;99925;-23
2021/08/29 13:53:53;;;;;;;8.70;2.00;;;;;;;;;;2082391;27;100009;-20
2021/08/29 13:54:54;;;;;;;6.60;2.05;;;;;;;;;;2090791;27;100646;-21
2021/08/29 13:55:55;;;;;;;6.57;2.05;;;;;;;;;;2082274;27;100087;-20
2021/08/29 13:56:56;;;;;;;3.50;1.63;;;;;;;;;;2089975;27;100034;-22
2021/08/29 13:57:58;;;;;;;5.95;1.90;;;;;;;;;;2090751;27;99906;-21
2021/08/29 13:59:00;;;;;;;4.80;1.73;;;;;;;;;;2078746;27;99980;-23
2021/08/29 14:00:01;;;;;;;9.27;2.15;;;;;;;;;;2090418;27;100140;-21
2021/08/29 14:01:13;;;;;;;5.75;2.00;;;;;;;;;;2089268;27;100034;-21
2021/08/29 14:02:14;;;;;;;6.03;1.95;;;;;;;;;;2090692;27;99917;-22
2021/08/29 14:03:15;;;;;;;;;;;;;;;;;;2091022;27;100136;-24
2021/08/29 14:04:16;;;;;;;7.55;1.90;;;;;;;;;;2082361;28;100034;-21
2021/08/29 14:05:17;;;;;;;6.32;2.10;;;;;;;;;;2082059;27;99945;-22
2021/08/29 14:06:18;;;;;;;4.30;1.70;;;;;;;;;;2091255;27;100000;-21
2021/08/29 14:07:19;;;;;;;5.75;2.30;;;;;;;;;;2091083;27;100002;-20
2021/08/29 14:08:20;;;;;;;;;;;;;;;;;;2091082;27;99993;-22
2021/08/29 14:09:21;;;;;;;3.70;1.60;;;;;;;;;;2090579;27;99974;-22
2021/08/29 14:10:22;;;;;;;4.90;1.77;;;;;;;;;;2091339;27;100078;-24
2021/08/29 14:11:23;;;;;;;3.60;1.50;;;;;;;;;;2090489;27;99955;-21
2021/08/29 14:12:24;;;;;;;;;;;;;;;;;;2091083;27;99870;-22
2021/08/29 14:13:25;;;;;;;4.22;1.60;;;;;;;;;;2090628;27;100041;-20
2021/08/29 14:14:26;;;;;;;4.45;1.52;;;;;;;;;;2090482;27;100061;-20
2021/08/29 14:15:27;;;;;;;;;;;;;;;;;;2090801;27;99846;-23
2021/08/29 14:16:29;;;;;;;3.78;1.83;;;;;;;;;;2091731;27;99980;-23
2021/08/29 14:17:30;;;;;;;3.92;1.77;;;;;;;;;;2091196;27;100009;-22
2021/08/29 14:18:31;;;;;;;6.57;2.05;;;;;;;;;;2091296;27;100084;-21
2021/08/29 14:19:32;;;;;;;6.85;2.05;;;;;;;;;;2090506;27;100062;-25
2021/08/29 14:20:34;;;;;;;3.20;1.70;;;;;;;;;;2066138;28;99977;-20
2021/08/29 14:21:38;;;;;;;5.38;1.50;;;;;;;;;;2057501;28;99929;-23
2021/08/29 14:22:40;;;;;;;4.35;1.65;;;;;;;;;;2075094;27;100111;-21
2021/08/29 14:23:41;;;;;;;2.65;1.45;;;;;;;;;;2090243;27;99965;-20
2021/08/29 14:24:42;;;;;;;5.75;1.77;;;;;;;;;;2073855;28;100101;-22
2021/08/29 14:25:44;;;;;;;7.05;1.67;;;;;;;;;;2065589;28;100115;-24
2021/08/29 14:26:47;;;;;;;4.35;1.80;;;;;;;;;;2074277;27;100369;-24
2021/08/29 14:27:52;;;;;;;;;;;;;;;;;;2082491;27;99972;-24
2021/08/29 14:28:53;;;;;;;7.45;1.85;;;;;;;;;;2082803;27;100075;-23
2021/08/29 14:29:54;;;;;;;3.75;1.98;;;;;;;;;;2090350;27;100588;-23
2021/08/29 14:30:55;;;;;;;4.30;1.60;;;;;;;;;;2090544;27;100194;-23
2021/08/29 14:31:57;;;;;;;6.07;1.95;;;;;;;;;;2073423;28;100113;-21
2021/08/29 14:32:59;;;;;;;6.53;1.80;;;;;;;;;;2082557;27;100097;-23
2021/08/29 14:34:01;;;;;;;4.72;1.83;;;;;;;;;;2090367;27;100062;-23
2021/08/29 14:35:02;;;;;;;5.97;1.67;;;;;;;;;;2073632;28;100673;-21
2021/08/29 14:36:04;;;;;;;6.40;1.95;;;;;;;;;;2073413;27;99969;-21
2021/08/29 14:37:05;;;;;;;3.53;1.65;;;;;;;;;;2090488;27;99982;-23
2021/08/29 14:38:06;;;;;;;7.20;1.88;;;;;;;;;;2090633;27;100005;-22
2021/08/29 14:39:07;;;;;;;6.28;1.88;;;;;;;;;;2082491;27;100396;-24
2021/08/29 14:40:08;;;;;;;4.13;1.45;;;;;;;;;;2090664;27;100149;-23
2021/08/29 14:41:09;;;;;;;7.28;1.83;;;;;;;;;;2091205;27;100041;-21
2021/08/29 14:42:10;;;;;;;4.68;2.00;;;;;;;;;;2090209;27;100031;-21
2021/08/29 14:43:11;;;;;;;;;;;;;;;;;;2082797;27;100012;-24
2021/08/29 14:44:12;;;;;;;3.90;1.58;;;;;;;;;;2082102;27;100051;-22
2021/08/29 14:45:14;;;;;;;3.05;1.38;;;;;;;;;;2090486;27;100053;-22
2021/08/29 14:46:15;;;;;;;3.55;1.48;;;;;;;;;;2091065;27;100041;-22
2021/08/29 14:47:16;;;;;;;3.65;1.90;;;;;;;;;;2073816;28;99870;-24
2021/08/29 14:48:17;;;;;;;4.55;1.45;;;;;;;;;;2057545;28;100093;-24
2021/08/29 14:49:18;;;;;;;4.95;1.77;;;;;;;;;;2073515;28;100431;-21
2021/08/29 14:50:21;;;;;;;5.47;2.10;;;;;;;;;;2073575;28;99999;-24
2021/08/29 14:51:25;;;;;;;7.25;1.98;;;;;;;;;;2074023;28;100224;-22
2021/08/29 14:52:28;;;;;;;3.63;1.63;;;;;;;;;;2073454;28;100194;-23
2021/08/29 14:53:29;;;;;;;4.00;1.70;;;;;;;;;;2073287;28;99981;-21
2021/08/29 14:54:30;;;;;;;5.40;2.03;;;;;;;;;;2073954;27;100027;-21
2021/08/29 14:55:31;;;;;;;;;;;;;;;;;;2090597;27;100117;-23
2021/08/29 14:56:32;;;;;;;3.55;1.70;;;;;;;;;;2090260;27;100078;-22
2021/08/29 14:57:33;;;;;;;;;;;;;;;;;;2082243;27;100075;-21
2021/08/29 14:58:36;;;;;;;5.72;2.05;;;;;;;;;;2090410;27;100026;-24
2021/08/29 14:59:37;;;;;;;3.00;1.70;;;;;;;;;;2090804;27;100018;-21
2021/08/29 15:00:38;;;;;;;;;;;;;;;;;;2090070;27;100182;-22
2021/08/29 15:01:39;;;;;;;2.38;1.50;;;;;;;;;;2090368;27;100102;-24
2021/08/29 15:02:41;;;;;;;;;;;;;;;;;;2091495;27;100306;-22
2021/08/29 15:03:42;;;;;;;3.47;1.50;;;;;;;;;;2091268;27;100223;-23
2021/08/29 15:04:44;;;;;;;6.68;2.22;;;;;;;;;;2090222;27;100065;-22
2021/08/29 15:05:45;;;;;;;5.53;1.80;;;;;;;;;;2090331;27;99994;-21
2021/08/29 15:06:46;;;;;;;;;;;;;;;;;;2082597;28;100461;-23
2021/08/29 15:07:47;;;;;;;5.07;1.90;;;;;;;;;;2081771;27;99928;-21
2021/08/29 15:08:48;;;;;;;4.72;1.92;;;;;;;;;;2091055;27;99958;-26
2021/08/29 15:09:49;;;;;;;;;;;;;;;;;;2091500;27;99959;-24
2021/08/29 15:10:50;;;;;;;4.70;1.90;;;;;;;;;;2091037;27;99887;-22
2021/08/29 15:11:50;;;;;;;;;;;;;;;;;;2082141;28;100071;-23
2021/08/29 15:12:51;;;;;;;3.75;1.63;;;;;;;;;;2081908;27;100141;-20
2021/08/29 15:13:52;;;;;;;4.63;1.83;;;;;;;;;;2090572;27;100100;-22
2021/08/29 15:14:53;;;;;;;8.85;2.20;;;;;;;;;;2090753;27;100033;-22
2021/08/29 15:15:56;;;;;;;;;;;;;;;;;;2090876;27;100538;-20
2021/08/29 15:16:57;;;;;;;5.10;1.60;;;;;;;;;;2090627;27;99986;-22
2021/08/29 15:17:58;;;;;;;;;;;;;;;;;;2091109;27;99984;-22
2021/08/29 15:19:00;;;;;;;7.10;1.70;;;;;;;;;;2090259;27;100144;-23
2021/08/29 15:20:04;;;;;;;5.57;1.70;;;;;;;;;;2089949;27;100108;-22
2021/08/29 15:21:05;;;;;;;4.93;1.77;;;;;;;;;;2090100;27;100004;-20
2021/08/29 15:22:06;;;;;;;4.95;1.70;;;;;;;;;;2089676;27;101452;-22
2021/08/29 15:23:07;;;;;;;;;;;;;;;;;;2090441;27;100581;-21
2021/08/29 15:24:08;;;;;;;4.22;1.63;;;;;;;;;;2090780;27;100043;-21
2021/08/29 15:25:09;;;;;;;5.85;1.55;;;;;;;;;;2089920;27;100167;-24
2021/08/29 15:26:10;;;;;;;9.57;1.75;;;;;;;;;;2089284;27;100120;-22
2021/08/29 15:27:12;;;;;;;4.10;1.80;;;;;;;;;;2090194;27;100024;-21
2021/08/29 15:28:14;;;;;;;6.07;1.67;;;;;;;;;;2081339;27;99955;-21
2021/08/29 15:29:15;;;;;;;7.10;1.90;;;;;;;;;;2081146;27;100106;-21
2021/08/29 15:30:16;;;;;;;8.55;1.65;;;;;;;;;;2072875;28;100553;-21
2021/08/29 15:31:17;;;;;;;;;;;;;;;;;;2072696;27;100113;-21
2021/08/29 15:32:19;;;;;;;6.53;1.73;;;;;;;;;;2089702;27;100169;-23
2021/08/29 15:33:20;;;;;;;7.43;1.98;;;;;;;;;;2090100;27;99925;-23
2021/08/29 15:34:21;;;;;;;;;;;;;;;;;;2090102;27;100481;-23
2021/08/29 15:35:22;;;;;;;5.28;1.95;;;;;;;;;;2090650;27;99875;-22
2021/08/29 15:36:23;;;;;;;;;;;;;;;;;;2090872;27;100143;-22
2021/08/29 15:37:24;;;;;;;5.43;1.83;;;;;;;;;;2081172;28;99949;-23
2021/08/29 15:38:25;;;;;;;2.50;1.48;;;;;;;;;;2081795;28;100079;-21
2021/08/29 15:39:26;;;;;;;5.18;1.70;;;;;;;;;;2090115;27;99913;-22
2021/08/29 15:40:33;;;;;;;;;;;;;;;;;;2091027;27;99935;-20
2021/08/29 15:41:33;;;;;;;5.63;1.50;;;;;;;;;;2090045;27;100068;-21
2021/08/29 15:42:35;;;;;;;;;;;;;;;;;;2081927;28;100763;-20
2021/08/29 15:43:36;;;;;;;6.10;1.70;;;;;;;;;;2073167;27;100219;-21
2021/08/29 15:44:36;;;;;;;;;;;;;;;;;;2090213;27;100021;-20